sensor_id;sensor_type;location;lat;lon;timestamp;temperature;humidity
66337;SHT30;53139;45.576;5.304;2022-08-21T00:01:47;24.48;78.79
66337;SHT30;53139;45.576;5.304;2022-08-21T00:04:48;24.48;78.76
66337;SHT30;53139;45.576;5.304;2022-08-21T00:07:48;24.47;78.86
66337;SHT30;53139;45.576;5.304;2022-08-21T00:10:50;24.45;78.99
66337;SHT30;53139;45.576;5.304;2022-08-21T00:13:50;24.45;78.67
66337;SHT30;53139;45.576;5.304;2022-08-21T00:16:50;24.42;78.77
66337;SHT30;53139;45.576;5.304;2022-08-21T00:19:51;24.38;78.63
66337;SHT30;53139;45.576;5.304;2022-08-21T00:22:51;24.41;78.69
66337;SHT30;53139;45.576;5.304;2022-08-21T00:25:52;24.39;78.63
66337;SHT30;53139;45.576;5.304;2022-08-21T00:28:52;24.37;78.73
66337;SHT30;53139;45.576;5.304;2022-08-21T00:31:53;24.37;78.65
66337;SHT30;53139;45.576;5.304;2022-08-21T00:34:53;24.32;78.77
66337;SHT30;53139;45.576;5.304;2022-08-21T00:37:54;24.31;78.57
66337;SHT30;53139;45.576;5.304;2022-08-21T00:40:58;24.29;78.63
66337;SHT30;53139;45.576;5.304;2022-08-21T00:43:59;24.28;78.66
66337;SHT30;53139;45.576;5.304;2022-08-21T00:46:59;24.27;78.66
66337;SHT30;53139;45.576;5.304;2022-08-21T00:50:00;24.24;78.50
66337;SHT30;53139;45.576;5.304;2022-08-21T00:53:03;24.25;78.62
66337;SHT30;53139;45.576;5.304;2022-08-21T00:56:06;24.21;78.55
66337;SHT30;53139;45.576;5.304;2022-08-21T00:59:07;24.21;78.47
66337;SHT30;53139;45.576;5.304;2022-08-21T01:02:08;24.18;78.33
66337;SHT30;53139;45.576;5.304;2022-08-21T01:05:10;24.20;78.40
66337;SHT30;53139;45.576;5.304;2022-08-21T01:08:12;24.17;78.47
66337;SHT30;53139;45.576;5.304;2022-08-21T01:11:14;24.13;78.62
66337;SHT30;53139;45.576;5.304;2022-08-21T01:14:16;24.14;78.43
66337;SHT30;53139;45.576;5.304;2022-08-21T01:17:19;24.13;78.17
66337;SHT30;53139;45.576;5.304;2022-08-21T01:20:20;24.13;78.41
66337;SHT30;53139;45.576;5.304;2022-08-21T01:23:21;24.13;78.55
66337;SHT30;53139;45.576;5.304;2022-08-21T01:26:25;24.07;78.57
66337;SHT30;53139;45.576;5.304;2022-08-21T01:32:39;24.06;78.46
66337;SHT30;53139;45.576;5.304;2022-08-21T01:35:39;24.03;78.40
66337;SHT30;53139;45.576;5.304;2022-08-21T01:38:40;24.03;78.70
66337;SHT30;53139;45.576;5.304;2022-08-21T01:41:41;24.01;78.31
66337;SHT30;53139;45.576;5.304;2022-08-21T01:44:41;24.01;78.13
66337;SHT30;53139;45.576;5.304;2022-08-21T01:47:43;24.00;78.64
66337;SHT30;53139;45.576;5.304;2022-08-21T01:50:43;23.97;78.22
66337;SHT30;53139;45.576;5.304;2022-08-21T01:53:44;23.97;78.60
66337;SHT30;53139;45.576;5.304;2022-08-21T01:56:46;23.97;78.22
66337;SHT30;53139;45.576;5.304;2022-08-21T01:59:47;23.96;78.30
66337;SHT30;53139;45.576;5.304;2022-08-21T02:02:48;23.94;78.53
66337;SHT30;53139;45.576;5.304;2022-08-21T02:05:48;23.90;78.39
66337;SHT30;53139;45.576;5.304;2022-08-21T02:08:48;23.93;78.63
66337;SHT30;53139;45.576;5.304;2022-08-21T02:11:50;23.93;78.66
66337;SHT30;53139;45.576;5.304;2022-08-21T02:14:51;23.90;78.30
66337;SHT30;53139;45.576;5.304;2022-08-21T02:17:56;23.87;78.98
66337;SHT30;53139;45.576;5.304;2022-08-21T02:20:57;23.86;78.60
66337;SHT30;53139;45.576;5.304;2022-08-21T02:23:58;23.87;79.06
66337;SHT30;53139;45.576;5.304;2022-08-21T02:26:58;23.86;78.60
66337;SHT30;53139;45.576;5.304;2022-08-21T02:29:59;23.84;79.59
66337;SHT30;53139;45.576;5.304;2022-08-21T02:32:59;23.82;78.77
66337;SHT30;53139;45.576;5.304;2022-08-21T02:36:00;23.80;78.67
66337;SHT30;53139;45.576;5.304;2022-08-21T02:39:01;23.80;78.77
66337;SHT30;53139;45.576;5.304;2022-08-21T02:42:02;23.82;78.82
66337;SHT30;53139;45.576;5.304;2022-08-21T02:45:03;23.77;78.08
66337;SHT30;53139;45.576;5.304;2022-08-21T02:48:06;23.79;78.12
66337;SHT30;53139;45.576;5.304;2022-08-21T02:51:14;23.75;78.60
66337;SHT30;53139;45.576;5.304;2022-08-21T02:54:14;23.73;78.45
66337;SHT30;53139;45.576;5.304;2022-08-21T02:57:15;23.75;78.86
66337;SHT30;53139;45.576;5.304;2022-08-21T03:00:16;23.73;78.95
66337;SHT30;53139;45.576;5.304;2022-08-21T03:03:17;23.70;79.12
66337;SHT30;53139;45.576;5.304;2022-08-21T03:06:20;23.69;78.34
66337;SHT30;53139;45.576;5.304;2022-08-21T03:09:21;23.69;78.44
66337;SHT30;53139;45.576;5.304;2022-08-21T03:12:22;23.66;78.80
66337;SHT30;53139;45.576;5.304;2022-08-21T03:15:23;23.69;79.18
66337;SHT30;53139;45.576;5.304;2022-08-21T03:18:24;23.67;78.91
66337;SHT30;53139;45.576;5.304;2022-08-21T03:21:24;23.67;78.67
66337;SHT30;53139;45.576;5.304;2022-08-21T03:24:25;23.63;78.67
66337;SHT30;53139;45.576;5.304;2022-08-21T03:27:27;23.61;78.14
66337;SHT30;53139;45.576;5.304;2022-08-21T03:30:28;23.63;78.42
66337;SHT30;53139;45.576;5.304;2022-08-21T03:33:28;23.59;79.36
66337;SHT30;53139;45.576;5.304;2022-08-21T03:36:29;23.61;78.31
66337;SHT30;53139;45.576;5.304;2022-08-21T03:39:29;23.58;79.08
66337;SHT30;53139;45.576;5.304;2022-08-21T03:42:30;23.58;78.10
66337;SHT30;53139;45.576;5.304;2022-08-21T03:45:30;23.56;78.29
66337;SHT30;53139;45.576;5.304;2022-08-21T03:48:32;23.59;78.39
66337;SHT30;53139;45.576;5.304;2022-08-21T03:51:33;23.55;78.18
66337;SHT30;53139;45.576;5.304;2022-08-21T03:54:35;23.54;78.04
66337;SHT30;53139;45.576;5.304;2022-08-21T03:57:35;23.54;78.71
66337;SHT30;53139;45.576;5.304;2022-08-21T04:00:36;23.48;76.89
66337;SHT30;53139;45.576;5.304;2022-08-21T04:03:37;23.49;78.34
66337;SHT30;53139;45.576;5.304;2022-08-21T04:06:38;23.49;78.59
66337;SHT30;53139;45.576;5.304;2022-08-21T04:09:38;23.48;77.83
66337;SHT30;53139;45.576;5.304;2022-08-21T04:12:38;23.46;77.67
66337;SHT30;53139;45.576;5.304;2022-08-21T04:15:39;23.44;78.23
66337;SHT30;53139;45.576;5.304;2022-08-21T04:18:41;23.41;77.33
66337;SHT30;53139;45.576;5.304;2022-08-21T04:21:42;23.41;77.27
66337;SHT30;53139;45.576;5.304;2022-08-21T04:24:42;23.39;77.88
66337;SHT30;53139;45.576;5.304;2022-08-21T04:27:43;23.38;78.12
66337;SHT30;53139;45.576;5.304;2022-08-21T04:30:43;23.38;77.22
66337;SHT30;53139;45.576;5.304;2022-08-21T04:33:44;23.35;78.09
66337;SHT30;53139;45.576;5.304;2022-08-21T04:36:45;23.34;77.83
66337;SHT30;53139;45.576;5.304;2022-08-21T04:39:45;23.32;78.02
66337;SHT30;53139;45.576;5.304;2022-08-21T04:42:51;23.27;77.66
66337;SHT30;53139;45.576;5.304;2022-08-21T04:45:52;23.32;77.67
66337;SHT30;53139;45.576;5.304;2022-08-21T04:48:52;23.28;77.07
66337;SHT30;53139;45.576;5.304;2022-08-21T04:51:53;23.25;77.90
66337;SHT30;53139;45.576;5.304;2022-08-21T04:54:53;23.25;77.44
66337;SHT30;53139;45.576;5.304;2022-08-21T04:57:55;23.24;77.90
66337;SHT30;53139;45.576;5.304;2022-08-21T05:00:58;23.21;78.11
66337;SHT30;53139;45.576;5.304;2022-08-21T05:04:02;23.18;76.87
66337;SHT30;53139;45.576;5.304;2022-08-21T05:07:09;23.18;76.08
66337;SHT30;53139;45.576;5.304;2022-08-21T05:10:10;23.15;76.87
66337;SHT30;53139;45.576;5.304;2022-08-21T05:13:12;23.14;75.75
66337;SHT30;53139;45.576;5.304;2022-08-21T05:16:12;23.14;75.74
66337;SHT30;53139;45.576;5.304;2022-08-21T05:19:13;23.11;75.57
66337;SHT30;53139;45.576;5.304;2022-08-21T05:22:20;23.08;76.88
66337;SHT30;53139;45.576;5.304;2022-08-21T05:25:20;23.08;76.54
66337;SHT30;53139;45.576;5.304;2022-08-21T05:28:21;23.06;76.50
66337;SHT30;53139;45.576;5.304;2022-08-21T05:31:21;23.01;75.66
66337;SHT30;53139;45.576;5.304;2022-08-21T05:34:23;23.01;76.88
66337;SHT30;53139;45.576;5.304;2022-08-21T05:37:23;23.03;77.38
66337;SHT30;53139;45.576;5.304;2022-08-21T05:40:24;23.00;77.39
66337;SHT30;53139;45.576;5.304;2022-08-21T05:43:24;22.99;77.04
66337;SHT30;53139;45.576;5.304;2022-08-21T05:46:25;22.97;75.43
66337;SHT30;53139;45.576;5.304;2022-08-21T05:49:25;22.93;77.00
66337;SHT30;53139;45.576;5.304;2022-08-21T05:52:25;22.92;76.49
66337;SHT30;53139;45.576;5.304;2022-08-21T05:55:26;22.93;76.83
66337;SHT30;53139;45.576;5.304;2022-08-21T05:58:26;22.92;77.79
66337;SHT30;53139;45.576;5.304;2022-08-21T06:01:27;22.89;76.62
66337;SHT30;53139;45.576;5.304;2022-08-21T06:04:27;22.84;77.60
66337;SHT30;53139;45.576;5.304;2022-08-21T06:07:28;22.87;77.97
66337;SHT30;53139;45.576;5.304;2022-08-21T06:10:28;22.83;77.15
66337;SHT30;53139;45.576;5.304;2022-08-21T06:13:30;22.82;78.19
66337;SHT30;53139;45.576;5.304;2022-08-21T06:16:30;22.82;76.92
66337;SHT30;53139;45.576;5.304;2022-08-21T06:19:31;22.80;78.07
66337;SHT30;53139;45.576;5.304;2022-08-21T06:22:31;22.79;77.53
66337;SHT30;53139;45.576;5.304;2022-08-21T06:25:32;22.80;77.47
66337;SHT30;53139;45.576;5.304;2022-08-21T06:28:33;22.74;77.14
66337;SHT30;53139;45.576;5.304;2022-08-21T06:31:33;22.77;76.73
66337;SHT30;53139;45.576;5.304;2022-08-21T06:34:38;22.74;76.83
66337;SHT30;53139;45.576;5.304;2022-08-21T06:37:38;22.74;77.65
66337;SHT30;53139;45.576;5.304;2022-08-21T06:40:39;22.76;77.81
66337;SHT30;53139;45.576;5.304;2022-08-21T06:43:39;22.76;78.25
66337;SHT30;53139;45.576;5.304;2022-08-21T06:46:40;22.79;77.62
66337;SHT30;53139;45.576;5.304;2022-08-21T06:49:40;22.74;78.58
66337;SHT30;53139;45.576;5.304;2022-08-21T06:52:41;22.77;78.28
66337;SHT30;53139;45.576;5.304;2022-08-21T06:55:41;22.76;78.32
66337;SHT30;53139;45.576;5.304;2022-08-21T06:58:42;22.77;78.34
66337;SHT30;53139;45.576;5.304;2022-08-21T07:01:42;22.77;77.24
66337;SHT30;53139;45.576;5.304;2022-08-21T07:04:43;22.77;78.62
66337;SHT30;53139;45.576;5.304;2022-08-21T07:07:44;22.79;78.22
66337;SHT30;53139;45.576;5.304;2022-08-21T07:10:47;22.77;78.38
66337;SHT30;53139;45.576;5.304;2022-08-21T07:13:48;22.79;77.75
66337;SHT30;53139;45.576;5.304;2022-08-21T07:16:49;22.83;78.13
66337;SHT30;53139;45.576;5.304;2022-08-21T07:19:51;22.82;77.45
66337;SHT30;53139;45.576;5.304;2022-08-21T07:22:51;22.80;77.85
66337;SHT30;53139;45.576;5.304;2022-08-21T07:25:52;22.80;78.13
66337;SHT30;53139;45.576;5.304;2022-08-21T07:28:53;22.80;77.82
66337;SHT30;53139;45.576;5.304;2022-08-21T07:31:53;22.82;78.03
66337;SHT30;53139;45.576;5.304;2022-08-21T07:34:54;22.83;77.38
66337;SHT30;53139;45.576;5.304;2022-08-21T07:37:54;22.86;78.28
66337;SHT30;53139;45.576;5.304;2022-08-21T07:40:56;22.83;78.67
66337;SHT30;53139;45.576;5.304;2022-08-21T07:43:59;22.84;78.48
66337;SHT30;53139;45.576;5.304;2022-08-21T07:47:00;22.86;78.36
66337;SHT30;53139;45.576;5.304;2022-08-21T07:50:01;22.86;79.20
66337;SHT30;53139;45.576;5.304;2022-08-21T07:53:01;22.86;78.78
66337;SHT30;53139;45.576;5.304;2022-08-21T07:56:04;22.86;79.05
66337;SHT30;53139;45.576;5.304;2022-08-21T07:59:05;22.87;79.16
66337;SHT30;53139;45.576;5.304;2022-08-21T08:02:06;22.89;78.45
66337;SHT30;53139;45.576;5.304;2022-08-21T08:05:09;22.90;78.30
66337;SHT30;53139;45.576;5.304;2022-08-21T08:08:09;22.89;78.42
66337;SHT30;53139;45.576;5.304;2022-08-21T08:11:11;22.90;78.57
66337;SHT30;53139;45.576;5.304;2022-08-21T08:14:11;22.92;79.04
66337;SHT30;53139;45.576;5.304;2022-08-21T08:17:12;22.93;79.17
66337;SHT30;53139;45.576;5.304;2022-08-21T08:20:15;22.93;78.50
66337;SHT30;53139;45.576;5.304;2022-08-21T08:23:17;22.94;78.89
66337;SHT30;53139;45.576;5.304;2022-08-21T08:26:17;22.93;78.75
66337;SHT30;53139;45.576;5.304;2022-08-21T08:29:17;22.96;79.27
66337;SHT30;53139;45.576;5.304;2022-08-21T08:32:18;22.94;78.93
66337;SHT30;53139;45.576;5.304;2022-08-21T08:35:19;22.99;78.98
66337;SHT30;53139;45.576;5.304;2022-08-21T08:38:21;23.01;78.58
66337;SHT30;53139;45.576;5.304;2022-08-21T08:41:22;23.00;78.51
66337;SHT30;53139;45.576;5.304;2022-08-21T08:44:23;23.01;78.93
66337;SHT30;53139;45.576;5.304;2022-08-21T08:47:25;23.00;78.72
66337;SHT30;53139;45.576;5.304;2022-08-21T08:50:52;23.03;78.11
66337;SHT30;53139;45.576;5.304;2022-08-21T08:54:09;23.03;78.38
66337;SHT30;53139;45.576;5.304;2022-08-21T08:57:20;23.04;78.05
66337;SHT30;53139;45.576;5.304;2022-08-21T09:00:23;23.07;78.14
66337;SHT30;53139;45.576;5.304;2022-08-21T09:03:26;23.07;77.93
66337;SHT30;53139;45.576;5.304;2022-08-21T09:06:56;23.10;78.26
66337;SHT30;53139;45.576;5.304;2022-08-21T09:10:18;23.11;77.98
66337;SHT30;53139;45.576;5.304;2022-08-21T09:13:27;23.11;77.88
66337;SHT30;53139;45.576;5.304;2022-08-21T09:23:36;23.15;77.81
66337;SHT30;53139;45.576;5.304;2022-08-21T09:26:49;23.18;77.83
66337;SHT30;53139;45.576;5.304;2022-08-21T09:29:53;23.18;77.53
66337;SHT30;53139;45.576;5.304;2022-08-21T09:32:54;23.20;77.64
66337;SHT30;53139;45.576;5.304;2022-08-21T09:35:55;23.21;77.62
66337;SHT30;53139;45.576;5.304;2022-08-21T09:38:59;23.25;77.52
66337;SHT30;53139;45.576;5.304;2022-08-21T09:42:03;23.24;77.49
66337;SHT30;53139;45.576;5.304;2022-08-21T09:45:09;23.25;77.61
66337;SHT30;53139;45.576;5.304;2022-08-21T09:51:17;23.28;77.62
66337;SHT30;53139;45.576;5.304;2022-08-21T09:54:18;23.32;77.33
66337;SHT30;53139;45.576;5.304;2022-08-21T09:57:27;23.32;77.28
66337;SHT30;53139;45.576;5.304;2022-08-21T10:00:42;23.31;77.35
66337;SHT30;53139;45.576;5.304;2022-08-21T10:03:42;23.35;77.38
66337;SHT30;53139;45.576;5.304;2022-08-21T10:06:43;23.37;77.35
66337;SHT30;53139;45.576;5.304;2022-08-21T10:09:43;23.38;77.40
66337;SHT30;53139;45.576;5.304;2022-08-21T10:16:14;23.41;77.43
66337;SHT30;53139;45.576;5.304;2022-08-21T10:20:02;23.44;77.43
66337;SHT30;53139;45.576;5.304;2022-08-21T10:26:11;23.44;77.56
66337;SHT30;53139;45.576;5.304;2022-08-21T10:39:35;23.52;77.30
66337;SHT30;53139;45.576;5.304;2022-08-21T11:05:51;23.67;77.41
66337;SHT30;53139;45.576;5.304;2022-08-21T11:08:55;23.69;77.33
66337;SHT30;53139;45.576;5.304;2022-08-21T11:12:16;23.72;77.41
66337;SHT30;53139;45.576;5.304;2022-08-21T11:15:27;23.73;77.44
66337;SHT30;53139;45.576;5.304;2022-08-21T11:18:37;23.76;77.35
66337;SHT30;53139;45.576;5.304;2022-08-21T11:25:07;23.76;77.45
66337;SHT30;53139;45.576;5.304;2022-08-21T11:28:17;23.82;77.63
66337;SHT30;53139;45.576;5.304;2022-08-21T11:31:48;23.83;77.71
66337;SHT30;53139;45.576;5.304;2022-08-21T11:41:28;23.89;77.61
66337;SHT30;53139;45.576;5.304;2022-08-21T11:45:22;23.90;77.70
66337;SHT30;53139;45.576;5.304;2022-08-21T11:51:45;23.94;77.59
66337;SHT30;53139;45.576;5.304;2022-08-21T11:54:54;23.93;77.70
66337;SHT30;53139;45.576;5.304;2022-08-21T11:58:03;23.97;77.69
66337;SHT30;53139;45.576;5.304;2022-08-21T12:01:21;23.99;77.77
66337;SHT30;53139;45.576;5.304;2022-08-21T12:04:25;24.00;77.72
66337;SHT30;53139;45.576;5.304;2022-08-21T12:08:00;24.00;77.79
66337;SHT30;53139;45.576;5.304;2022-08-21T12:14:18;24.04;77.96
66337;SHT30;53139;45.576;5.304;2022-08-21T12:17:24;24.06;77.90
66337;SHT30;53139;45.576;5.304;2022-08-21T12:20:41;24.07;77.90
66337;SHT30;53139;45.576;5.304;2022-08-21T12:26:57;24.14;77.96
66337;SHT30;53139;45.576;5.304;2022-08-21T12:30:06;24.14;77.92
66337;SHT30;53139;45.576;5.304;2022-08-21T12:36:24;24.17;77.90
66337;SHT30;53139;45.576;5.304;2022-08-21T12:39:29;24.20;78.00
66337;SHT30;53139;45.576;5.304;2022-08-21T12:42:42;24.24;77.95
66337;SHT30;53139;45.576;5.304;2022-08-21T12:45:46;24.21;78.02
66337;SHT30;53139;45.576;5.304;2022-08-21T12:48:51;24.25;78.03
66337;SHT30;53139;45.576;5.304;2022-08-21T12:51:57;24.27;78.13
66337;SHT30;53139;45.576;5.304;2022-08-21T12:55:00;24.24;78.04
66337;SHT30;53139;45.576;5.304;2022-08-21T12:58:01;24.31;78.12
66337;SHT30;53139;45.576;5.304;2022-08-21T13:04:37;24.32;77.93
66337;SHT30;53139;45.576;5.304;2022-08-21T13:07:45;24.35;77.70
66337;SHT30;53139;45.576;5.304;2022-08-21T13:10:48;24.37;77.60
66337;SHT30;53139;45.576;5.304;2022-08-21T13:13:53;24.39;77.95
66337;SHT30;53139;45.576;5.304;2022-08-21T13:16:55;24.41;78.11
66337;SHT30;53139;45.576;5.304;2022-08-21T13:19:59;24.44;77.78
66337;SHT30;53139;45.576;5.304;2022-08-21T13:23:01;24.45;78.13
66337;SHT30;53139;45.576;5.304;2022-08-21T13:26:21;24.48;78.55
66337;SHT30;53139;45.576;5.304;2022-08-21T13:29:27;24.48;78.24
66337;SHT30;53139;45.576;5.304;2022-08-21T13:32:30;24.47;77.58
66337;SHT30;53139;45.576;5.304;2022-08-21T13:38:51;24.54;78.15
66337;SHT30;53139;45.576;5.304;2022-08-21T13:41:56;24.55;78.59
66337;SHT30;53139;45.576;5.304;2022-08-21T13:44:57;24.54;77.97
66337;SHT30;53139;45.576;5.304;2022-08-21T13:48:00;24.56;77.41
66337;SHT30;53139;45.576;5.304;2022-08-21T13:51:01;24.58;77.88
66337;SHT30;53139;45.576;5.304;2022-08-21T13:54:23;24.58;78.14
66337;SHT30;53139;45.576;5.304;2022-08-21T13:57:32;24.61;77.53
66337;SHT30;53139;45.576;5.304;2022-08-21T14:00:35;24.61;77.85
66337;SHT30;53139;45.576;5.304;2022-08-21T14:03:45;24.61;79.24
66337;SHT30;53139;45.576;5.304;2022-08-21T14:06:49;24.64;78.01
66337;SHT30;53139;45.576;5.304;2022-08-21T14:09:50;24.66;78.38
66337;SHT30;53139;45.576;5.304;2022-08-21T14:12:53;24.68;78.23
66337;SHT30;53139;45.576;5.304;2022-08-21T14:15:58;24.69;79.53
66337;SHT30;53139;45.576;5.304;2022-08-21T14:22:41;24.69;78.95
66337;SHT30;53139;45.576;5.304;2022-08-21T14:25:43;24.72;79.06
66337;SHT30;53139;45.576;5.304;2022-08-21T14:28:44;24.73;78.76
66337;SHT30;53139;45.576;5.304;2022-08-21T14:31:58;24.77;76.97
66337;SHT30;53139;45.576;5.304;2022-08-21T14:34:59;24.76;76.98
66337;SHT30;53139;45.576;5.304;2022-08-21T14:38:00;24.80;77.10
66337;SHT30;53139;45.576;5.304;2022-08-21T14:41:06;24.80;78.83
66337;SHT30;53139;45.576;5.304;2022-08-21T14:44:09;24.80;78.03
66337;SHT30;53139;45.576;5.304;2022-08-21T14:47:09;24.83;78.34
66337;SHT30;53139;45.576;5.304;2022-08-21T14:50:11;24.89;77.91
66337;SHT30;53139;45.576;5.304;2022-08-21T14:53:12;24.86;76.57
66337;SHT30;53139;45.576;5.304;2022-08-21T14:56:14;24.89;77.58
66337;SHT30;53139;45.576;5.304;2022-08-21T14:59:15;24.87;77.43
66337;SHT30;53139;45.576;5.304;2022-08-21T15:02:15;24.93;76.59
66337;SHT30;53139;45.576;5.304;2022-08-21T15:05:17;24.93;78.98
66337;SHT30;53139;45.576;5.304;2022-08-21T15:08:17;24.92;76.66
66337;SHT30;53139;45.576;5.304;2022-08-21T15:11:21;24.92;77.24
66337;SHT30;53139;45.576;5.304;2022-08-21T15:14:25;24.97;75.44
66337;SHT30;53139;45.576;5.304;2022-08-21T15:17:26;24.94;77.48
66337;SHT30;53139;45.576;5.304;2022-08-21T15:20:26;24.93;78.56
66337;SHT30;53139;45.576;5.304;2022-08-21T15:23:27;24.97;77.95
66337;SHT30;53139;45.576;5.304;2022-08-21T15:26:27;24.99;78.88
66337;SHT30;53139;45.576;5.304;2022-08-21T15:29:29;24.99;78.43
66337;SHT30;53139;45.576;5.304;2022-08-21T15:32:29;24.99;77.26
66337;SHT30;53139;45.576;5.304;2022-08-21T15:35:30;25.00;78.20
66337;SHT30;53139;45.576;5.304;2022-08-21T15:38:31;24.99;78.32
66337;SHT30;53139;45.576;5.304;2022-08-21T15:41:31;25.00;79.25
66337;SHT30;53139;45.576;5.304;2022-08-21T15:44:32;25.03;77.74
66337;SHT30;53139;45.576;5.304;2022-08-21T15:47:35;25.06;77.88
66337;SHT30;53139;45.576;5.304;2022-08-21T15:50:36;25.04;78.17
66337;SHT30;53139;45.576;5.304;2022-08-21T15:53:36;25.02;79.02
66337;SHT30;53139;45.576;5.304;2022-08-21T15:56:40;25.04;76.97
66337;SHT30;53139;45.576;5.304;2022-08-21T15:59:49;25.04;77.20
66337;SHT30;53139;45.576;5.304;2022-08-21T16:02:53;25.03;79.47
66337;SHT30;53139;45.576;5.304;2022-08-21T16:05:55;25.06;78.57
66337;SHT30;53139;45.576;5.304;2022-08-21T16:08:58;25.06;79.16
66337;SHT30;53139;45.576;5.304;2022-08-21T16:11:59;25.06;78.80
66337;SHT30;53139;45.576;5.304;2022-08-21T16:15:03;25.07;78.92
66337;SHT30;53139;45.576;5.304;2022-08-21T16:18:04;25.10;78.31
66337;SHT30;53139;45.576;5.304;2022-08-21T16:21:05;25.07;77.05
66337;SHT30;53139;45.576;5.304;2022-08-21T16:24:07;25.10;77.45
66337;SHT30;53139;45.576;5.304;2022-08-21T16:27:08;25.14;77.58
66337;SHT30;53139;45.576;5.304;2022-08-21T16:30:09;25.06;80.47
66337;SHT30;53139;45.576;5.304;2022-08-21T16:33:24;25.09;78.57
66337;SHT30;53139;45.576;5.304;2022-08-21T16:36:26;25.13;78.33
66337;SHT30;53139;45.576;5.304;2022-08-21T16:39:27;25.10;79.12
66337;SHT30;53139;45.576;5.304;2022-08-21T16:42:27;25.13;77.46
66337;SHT30;53139;45.576;5.304;2022-08-21T16:45:28;25.14;78.54
66337;SHT30;53139;45.576;5.304;2022-08-21T16:48:28;25.13;77.31
66337;SHT30;53139;45.576;5.304;2022-08-21T16:51:29;25.13;79.80
66337;SHT30;53139;45.576;5.304;2022-08-21T16:54:32;25.14;77.96
66337;SHT30;53139;45.576;5.304;2022-08-21T16:57:32;25.17;78.07
66337;SHT30;53139;45.576;5.304;2022-08-21T17:00:33;25.14;78.84
66337;SHT30;53139;45.576;5.304;2022-08-21T17:03:38;25.16;78.80
66337;SHT30;53139;45.576;5.304;2022-08-21T17:06:38;25.14;77.10
66337;SHT30;53139;45.576;5.304;2022-08-21T17:09:39;25.20;78.35
66337;SHT30;53139;45.576;5.304;2022-08-21T17:12:41;25.13;77.91
66337;SHT30;53139;45.576;5.304;2022-08-21T17:15:42;25.16;79.41
66337;SHT30;53139;45.576;5.304;2022-08-21T17:18:43;25.13;79.37
66337;SHT30;53139;45.576;5.304;2022-08-21T17:21:43;25.16;78.78
66337;SHT30;53139;45.576;5.304;2022-08-21T17:24:44;25.19;77.06
66337;SHT30;53139;45.576;5.304;2022-08-21T17:27:46;25.20;77.96
66337;SHT30;53139;45.576;5.304;2022-08-21T17:30:47;25.13;77.30
66337;SHT30;53139;45.576;5.304;2022-08-21T17:33:51;25.16;79.06
66337;SHT30;53139;45.576;5.304;2022-08-21T17:36:52;25.17;78.67
66337;SHT30;53139;45.576;5.304;2022-08-21T17:39:52;25.17;79.12
66337;SHT30;53139;45.576;5.304;2022-08-21T17:42:53;25.16;77.96
66337;SHT30;53139;45.576;5.304;2022-08-21T17:45:53;25.19;76.86
66337;SHT30;53139;45.576;5.304;2022-08-21T17:48:55;25.17;79.30
66337;SHT30;53139;45.576;5.304;2022-08-21T17:51:55;25.17;79.77
66337;SHT30;53139;45.576;5.304;2022-08-21T17:54:56;25.19;78.01
66337;SHT30;53139;45.576;5.304;2022-08-21T17:57:56;25.17;78.41
66337;SHT30;53139;45.576;5.304;2022-08-21T18:00:59;25.19;78.01
66337;SHT30;53139;45.576;5.304;2022-08-21T18:04:02;25.17;76.60
66337;SHT30;53139;45.576;5.304;2022-08-21T18:07:03;25.16;77.16
66337;SHT30;53139;45.576;5.304;2022-08-21T18:10:07;25.19;77.14
66337;SHT30;53139;45.576;5.304;2022-08-21T18:13:12;25.19;78.59
66337;SHT30;53139;45.576;5.304;2022-08-21T18:16:14;25.19;78.56
66337;SHT30;53139;45.576;5.304;2022-08-21T18:19:18;25.16;77.63
66337;SHT30;53139;45.576;5.304;2022-08-21T18:22:20;25.19;76.99
66337;SHT30;53139;45.576;5.304;2022-08-21T18:25:21;25.17;76.73
66337;SHT30;53139;45.576;5.304;2022-08-21T18:28:22;25.16;76.99
66337;SHT30;53139;45.576;5.304;2022-08-21T18:31:23;25.16;77.66
66337;SHT30;53139;45.576;5.304;2022-08-21T18:34:32;25.14;78.20
66337;SHT30;53139;45.576;5.304;2022-08-21T18:37:34;25.13;77.18
66337;SHT30;53139;45.576;5.304;2022-08-21T18:40:37;25.13;77.87
66337;SHT30;53139;45.576;5.304;2022-08-21T18:43:38;25.16;77.33
66337;SHT30;53139;45.576;5.304;2022-08-21T18:46:38;25.13;77.76
66337;SHT30;53139;45.576;5.304;2022-08-21T18:49:39;25.13;78.54
66337;SHT30;53139;45.576;5.304;2022-08-21T18:52:40;25.13;78.03
66337;SHT30;53139;45.576;5.304;2022-08-21T18:55:42;25.11;78.05
66337;SHT30;53139;45.576;5.304;2022-08-21T18:58:44;25.10;78.27
66337;SHT30;53139;45.576;5.304;2022-08-21T19:01:45;25.13;79.14
66337;SHT30;53139;45.576;5.304;2022-08-21T19:04:45;25.11;77.39
66337;SHT30;53139;45.576;5.304;2022-08-21T19:07:46;25.11;77.41
66337;SHT30;53139;45.576;5.304;2022-08-21T19:10:49;25.10;78.36
66337;SHT30;53139;45.576;5.304;2022-08-21T19:13:51;25.09;78.55
66337;SHT30;53139;45.576;5.304;2022-08-21T19:16:52;25.09;78.36
66337;SHT30;53139;45.576;5.304;2022-08-21T19:19:55;25.07;77.91
66337;SHT30;53139;45.576;5.304;2022-08-21T19:22:58;25.06;78.73
66337;SHT30;53139;45.576;5.304;2022-08-21T19:26:02;25.07;78.29
66337;SHT30;53139;45.576;5.304;2022-08-21T19:29:06;25.07;78.59
66337;SHT30;53139;45.576;5.304;2022-08-21T19:32:08;25.04;78.39
66337;SHT30;53139;45.576;5.304;2022-08-21T19:35:09;25.04;77.88
66337;SHT30;53139;45.576;5.304;2022-08-21T19:38:10;25.04;78.29
66337;SHT30;53139;45.576;5.304;2022-08-21T19:41:13;25.03;76.93
66337;SHT30;53139;45.576;5.304;2022-08-21T19:44:18;25.00;78.29
66337;SHT30;53139;45.576;5.304;2022-08-21T19:47:19;25.02;78.74
66337;SHT30;53139;45.576;5.304;2022-08-21T19:50:20;25.00;78.05
66337;SHT30;53139;45.576;5.304;2022-08-21T19:53:21;24.99;78.75
66337;SHT30;53139;45.576;5.304;2022-08-21T19:56:25;24.99;78.23
66337;SHT30;53139;45.576;5.304;2022-08-21T19:59:25;24.97;78.17
66337;SHT30;53139;45.576;5.304;2022-08-21T20:02:27;24.96;78.24
66337;SHT30;53139;45.576;5.304;2022-08-21T20:05:27;24.96;78.79
66337;SHT30;53139;45.576;5.304;2022-08-21T20:08:27;24.94;77.96
66337;SHT30;53139;45.576;5.304;2022-08-21T20:11:32;24.93;78.74
66337;SHT30;53139;45.576;5.304;2022-08-21T20:14:35;24.93;78.46
66337;SHT30;53139;45.576;5.304;2022-08-21T20:17:38;24.93;78.30
66337;SHT30;53139;45.576;5.304;2022-08-21T20:20:39;24.89;77.86
66337;SHT30;53139;45.576;5.304;2022-08-21T20:23:39;24.89;78.34
66337;SHT30;53139;45.576;5.304;2022-08-21T20:26:41;24.89;79.20
66337;SHT30;53139;45.576;5.304;2022-08-21T20:29:42;24.90;77.02
66337;SHT30;53139;45.576;5.304;2022-08-21T20:32:42;24.89;78.86
66337;SHT30;53139;45.576;5.304;2022-08-21T20:35:43;24.87;78.52
66337;SHT30;53139;45.576;5.304;2022-08-21T20:38:48;24.87;77.56
66337;SHT30;53139;45.576;5.304;2022-08-21T20:41:51;24.87;78.87